Time;durP1;ratioP1;P1;durP2;ratioP2;P2;SDS_P1;SDS_P2;PMS_P1;PMS_P2;Temp;Humidity;BMP_temperature;BMP_pressure;BME280_temperature;BME280_humidity;BME280_pressure;Samples;Min_cycle;Max_cycle;Signal;HPM_P1;HPM_P2
2022/08/23 00:01:44;;;;;;;5.73;3.90;;;;;;;21.94;48.13;97339.50;5051975;28;20457;-70
2022/08/23 00:04:12;;;;;;;6.73;4.53;;;;;;;22.00;48.23;97343.13;5052736;28;20479;-71
2022/08/23 00:06:38;;;;;;;7.73;4.17;;;;;;;22.00;48.09;97340.44;5052421;28;20490;-70
2022/08/23 00:09:05;;;;;;;6.13;4.33;;;;;;;21.96;48.07;97338.47;5044668;28;20425;-70
2022/08/23 00:11:37;;;;;;;4.90;3.83;;;;;;;21.89;48.32;97333.19;5053167;28;20483;-70
2022/08/23 00:14:09;;;;;;;4.77;3.73;;;;;;;21.90;48.21;97335.66;5042577;28;20453;-70
2022/08/23 00:16:35;;;;;;;4.43;3.60;;;;;;;21.86;48.17;97333.66;5052789;28;20448;-71
2022/08/23 00:19:08;;;;;;;4.07;3.67;;;;;;;21.82;48.09;97333.25;5035013;28;20433;-71
2022/08/23 00:21:35;;;;;;;5.33;3.73;;;;;;;21.74;48.26;97325.56;5044783;28;20210;-70
2022/08/23 00:24:01;;;;;;;7.47;3.97;;;;;;;21.74;48.39;97330.91;5052629;28;20449;-70
2022/08/23 00:27:06;;;;;;;5.50;3.60;;;;;;;21.72;48.37;97333.78;5048586;28;20445;-70
2022/08/23 00:29:51;;;;;;;6.30;4.20;;;;;;;21.73;48.52;97322.09;5036871;28;20429;-72
2022/08/23 00:32:20;;;;;;;4.10;3.70;;;;;;;21.73;48.29;97324.75;5052305;28;20860;-70
2022/08/23 00:34:45;;;;;;;4.67;3.77;;;;;;;21.61;48.74;97324.66;5052463;28;20461;-70
2022/08/23 00:37:11;;;;;;;8.77;4.10;;;;;;;21.49;48.84;97313.88;5043260;28;20437;-70
2022/08/23 00:39:39;;;;;;;5.97;4.30;;;;;;;21.53;48.85;97314.25;5046282;28;20273;-69
2022/08/23 00:47:51;;;;;;;4.80;3.87;;;;;;;21.37;48.91;97320.94;5050457;28;20426;-71
2022/08/23 00:50:28;;;;;;;5.10;4.00;;;;;;;21.41;49.21;97321.34;5050847;28;20445;-70
2022/08/23 00:53:01;;;;;;;5.10;4.17;;;;;;;21.38;48.81;97319.91;5050738;28;20186;-70
2022/08/23 00:55:27;;;;;;;6.40;4.20;;;;;;;21.37;48.67;97323.63;5043731;28;20446;-70
2022/08/23 00:57:53;;;;;;;5.87;4.50;;;;;;;21.29;48.84;97318.56;5051074;28;20432;-70
2022/08/23 01:00:19;;;;;;;4.13;3.73;;;;;;;21.36;48.72;97318.50;5053505;28;20425;-70
2022/08/23 01:02:47;;;;;;;4.07;3.40;;;;;;;21.37;48.88;97320.16;5051605;28;20211;-71
2022/08/23 01:05:13;;;;;;;6.40;3.40;;;;;;;21.43;48.55;97319.25;5050510;28;20326;-71
2022/08/23 01:07:59;;;;;;;5.13;3.30;;;;;;;21.28;48.63;97319.59;5041750;28;20512;-71
2022/08/23 01:10:35;;;;;;;4.80;3.93;;;;;;;21.15;49.33;97323.22;5049567;28;20211;-70
2022/08/23 01:13:11;;;;;;;7.80;3.23;;;;;;;21.22;49.00;97328.50;5045458;28;20516;-70
2022/08/23 01:15:42;;;;;;;4.30;3.43;;;;;;;21.16;48.74;97327.50;5043321;28;20535;-71
2022/08/23 01:18:10;;;;;;;5.20;2.93;;;;;;;21.07;48.80;97328.78;5050747;28;20427;-70
2022/08/23 01:20:46;;;;;;;4.67;3.30;;;;;;;21.04;48.94;97324.72;5047265;28;20520;-70
2022/08/23 01:23:27;;;;;;;5.67;3.80;;;;;;;21.12;48.38;97326.31;5031397;28;20470;-72
2022/08/23 01:25:52;;;;;;;4.30;3.20;;;;;;;21.16;47.72;97325.66;5050603;28;20944;-69
2022/08/23 01:28:18;;;;;;;8.33;3.07;;;;;;;21.14;48.13;97318.91;5049500;28;20426;-71
2022/08/23 01:30:45;;;;;;;6.67;3.60;;;;;;;21.11;48.05;97322.00;5051582;28;20183;-70
2022/08/23 01:33:10;;;;;;;3.83;3.20;;;;;;;21.06;48.28;97319.16;5050091;28;20202;-70
2022/08/23 01:35:43;;;;;;;5.53;3.20;;;;;;;21.01;48.43;97317.16;5051314;28;20453;-70
2022/08/23 01:38:09;;;;;;;5.60;3.27;;;;;;;20.95;48.63;97318.84;5040929;28;20194;-71
2022/08/23 01:40:35;;;;;;;3.40;3.10;;;;;;;20.94;48.60;97322.53;5050063;28;20440;-70
2022/08/23 01:43:01;;;;;;;4.67;3.20;;;;;;;20.92;48.48;97316.59;5043532;28;20434;-71
2022/08/23 01:45:28;;;;;;;6.43;3.10;;;;;;;20.93;48.62;97320.09;5035315;28;20639;-70
2022/08/23 01:47:54;;;;;;;3.70;3.40;;;;;;;20.92;48.60;97324.59;5050505;28;20428;-70
2022/08/23 01:50:20;;;;;;;3.80;3.43;;;;;;;20.86;48.67;97326.25;5051000;28;20884;-70
2022/08/23 01:52:45;;;;;;;5.63;3.57;;;;;;;20.75;48.94;97326.16;5051044;28;20179;-72
2022/08/23 01:55:11;;;;;;;8.20;4.07;;;;;;;20.74;49.15;97327.16;5050898;28;20214;-70
2022/08/23 01:57:36;;;;;;;5.40;3.90;;;;;;;20.69;49.16;97325.94;5036738;28;20225;-70
2022/08/23 02:00:05;;;;;;;8.10;3.90;;;;;;;20.68;48.84;97329.63;5046143;28;20187;-72
2022/08/23 02:02:30;;;;;;;6.53;3.90;;;;;;;20.67;48.74;97333.31;5050991;28;20207;-71
2022/08/23 02:04:56;;;;;;;6.53;4.53;;;;;;;20.68;48.72;97324.31;5048865;28;20536;-72
2022/08/23 02:07:25;;;;;;;6.33;4.00;;;;;;;20.62;49.21;97330.50;5050096;28;20263;-70
2022/08/23 02:09:51;;;;;;;6.27;3.57;;;;;;;20.54;49.57;97338.75;5049885;28;20187;-70
2022/08/23 02:12:16;;;;;;;5.30;3.57;;;;;;;20.55;49.47;97340.34;5050857;28;20432;-71
2022/08/23 02:14:42;;;;;;;4.53;3.43;;;;;;;20.55;49.47;97345.69;5034532;28;20209;-69
2022/08/23 02:17:08;;;;;;;5.07;3.60;;;;;;;20.48;49.73;97344.91;5049936;28;20182;-70
2022/08/23 02:19:34;;;;;;;16.57;4.13;;;;;;;20.42;49.81;97342.06;5049490;28;20576;-69
2022/08/23 02:22:00;;;;;;;6.53;3.23;;;;;;;20.36;50.02;97342.91;5041433;28;20453;-70
2022/08/23 02:24:25;;;;;;;5.77;3.67;;;;;;;20.29;50.08;97347.44;5049379;28;20524;-71
2022/08/23 02:26:54;;;;;;;4.57;3.60;;;;;;;20.32;50.15;97344.34;5050235;28;20191;-71
2022/08/23 02:29:22;;;;;;;6.93;3.80;;;;;;;20.34;50.24;97352.94;5048979;28;20186;-71
2022/08/23 02:31:48;;;;;;;7.23;3.60;;;;;;;20.32;50.18;97344.34;5043713;28;20782;-70
2022/08/23 02:34:15;;;;;;;7.17;3.83;;;;;;;20.28;50.14;97345.81;5048064;28;20446;-70
2022/08/23 02:36:42;;;;;;;4.30;3.40;;;;;;;20.30;50.37;97354.38;5049925;28;20449;-70
2022/08/23 02:39:08;;;;;;;4.10;3.00;;;;;;;20.30;50.29;97349.06;5045704;28;20844;-70
2022/08/23 02:41:34;;;;;;;3.53;3.10;;;;;;;20.31;50.26;97350.69;5050713;28;20555;-70
2022/08/23 02:44:00;;;;;;;5.00;3.67;;;;;;;20.28;49.96;97345.81;5033931;28;20465;-71
2022/08/23 02:46:26;;;;;;;7.50;3.77;;;;;;;20.30;50.18;97349.06;5042782;28;20425;-71
2022/08/23 02:48:51;;;;;;;5.93;3.20;;;;;;;20.29;50.03;97352.75;5050652;28;20897;-70
2022/08/23 02:51:17;;;;;;;4.90;3.90;;;;;;;20.25;50.04;97351.56;5044831;28;20187;-71
2022/08/23 02:53:43;;;;;;;4.40;3.70;;;;;;;20.23;49.90;97353.63;5034738;28;20263;-71
2022/08/23 02:56:09;;;;;;;7.33;3.50;;;;;;;20.21;49.96;97355.66;5047206;28;20552;-71
2022/08/23 02:58:35;;;;;;;5.57;3.33;;;;;;;20.08;50.29;97352.03;5037264;28;20265;-71
2022/08/23 03:01:01;;;;;;;3.80;3.20;;;;;;;20.08;50.42;97361.84;5050495;28;20561;-71
2022/08/23 03:03:27;;;;;;;4.40;3.23;;;;;;;20.09;50.02;97356.31;5032563;28;20272;-72
2022/08/23 03:05:52;;;;;;;12.00;3.63;;;;;;;20.13;49.73;97359.38;5031256;28;20521;-70
2022/08/23 03:08:19;;;;;;;3.50;3.20;;;;;;;20.16;49.63;97360.81;5044986;28;20639;-71
2022/08/23 03:10:46;;;;;;;7.13;3.40;;;;;;;20.18;49.29;97350.75;5049071;28;20561;-71
2022/08/23 03:13:11;;;;;;;3.80;3.27;;;;;;;20.21;49.16;97358.31;5025626;28;20798;-71
2022/08/23 03:15:38;;;;;;;3.80;3.27;;;;;;;20.12;49.88;97364.91;5052144;28;20453;-71
2022/08/23 03:18:04;;;;;;;3.63;3.33;;;;;;;20.19;49.51;97360.38;5053095;28;20191;-71
2022/08/23 03:20:29;;;;;;;6.60;3.33;;;;;;;20.17;49.76;97365.09;5046884;28;20422;-71
2022/08/23 03:22:55;;;;;;;5.33;3.40;;;;;;;20.08;49.51;97367.19;5036486;28;20591;-71
2022/08/23 03:25:21;;;;;;;4.27;3.70;;;;;;;20.03;49.90;97364.31;5050972;28;20256;-70
2022/08/23 03:27:46;;;;;;;5.83;3.27;;;;;;;19.97;50.03;97362.50;5053034;28;20183;-71
2022/08/23 03:30:12;;;;;;;3.40;3.00;;;;;;;19.92;50.06;97363.94;5042868;28;20440;-70
2022/08/23 03:32:38;;;;;;;3.60;3.00;;;;;;;19.94;49.83;97353.09;5043288;28;20236;-70
2022/08/23 03:35:04;;;;;;;3.30;3.00;;;;;;;19.99;49.54;97357.78;5044040;28;20207;-72
2022/08/23 03:37:29;;;;;;;5.03;3.00;;;;;;;20.02;49.57;97366.19;5052435;28;20202;-72
2022/08/23 03:39:55;;;;;;;3.50;2.83;;;;;;;20.04;49.94;97368.63;5037109;28;20529;-70
2022/08/23 03:42:20;;;;;;;5.50;3.40;;;;;;;20.03;49.96;97362.50;5051669;28;20206;-70
2022/08/23 03:44:46;;;;;;;7.00;3.93;;;;;;;19.97;50.07;97365.97;5037029;28;20207;-71
2022/08/23 03:47:11;;;;;;;5.20;3.40;;;;;;;19.90;50.14;97359.88;5049576;28;20676;-71
2022/08/23 03:49:37;;;;;;;4.07;3.63;;;;;;;19.90;50.25;97365.19;5053308;28;20245;-70
2022/08/23 03:52:03;;;;;;;4.80;3.30;;;;;;;19.90;50.19;97366.00;5041899;28;20188;-70
2022/08/23 03:54:29;;;;;;;3.90;2.83;;;;;;;19.89;50.01;97366.22;5036746;28;20582;-70
2022/08/23 03:57:01;;;;;;;5.43;3.43;;;;;;;19.93;50.17;97375.38;5044036;28;20428;-71
2022/08/23 03:59:27;;;;;;;7.80;3.50;;;;;;;19.87;50.09;97381.56;5051709;28;20179;-70
2022/08/23 04:01:52;;;;;;;5.83;3.37;;;;;;;19.79;50.26;97380.69;5038788;28;20528;-71
2022/08/23 04:04:18;;;;;;;3.93;3.20;;;;;;;19.80;50.47;97376.22;5042122;28;20214;-71
2022/08/23 04:06:44;;;;;;;5.17;3.43;;;;;;;19.80;50.53;97374.34;5051997;28;20235;-68
2022/08/23 04:09:10;;;;;;;7.43;3.90;;;;;;;19.80;50.54;97386.84;5042402;28;20196;-71
2022/08/23 04:11:36;;;;;;;5.93;3.57;;;;;;;19.73;50.71;97386.03;5031078;28;20259;-70
2022/08/23 04:14:01;;;;;;;4.73;3.43;;;;;;;19.60;51.13;97382.34;5048890;28;20449;-70
2022/08/23 04:16:29;;;;;;;4.90;3.37;;;;;;;19.60;51.11;97385.00;5051606;28;20606;-70
2022/08/23 04:18:55;;;;;;;5.00;3.43;;;;;;;19.60;51.09;97393.00;5052593;28;20187;-71
2022/08/23 04:21:21;;;;;;;11.43;4.20;;;;;;;19.58;51.26;97389.75;5051728;28;20500;-71
2022/08/23 04:23:47;;;;;;;6.43;3.70;;;;;;;19.57;51.32;97389.94;5052446;28;20453;-71
2022/08/23 04:26:13;;;;;;;6.00;3.53;;;;;;;19.51;51.35;97388.91;5041943;28;20477;-70
2022/08/23 04:28:38;;;;;;;4.00;3.30;;;;;;;19.49;51.35;97383.81;5051797;28;20425;-70
2022/08/23 04:31:04;;;;;;;5.60;4.33;;;;;;;19.48;51.34;97390.16;5043163;28;20713;-72
2022/08/23 04:33:31;;;;;;;5.73;3.40;;;;;;;19.47;51.43;97393.81;5049530;28;20191;-71
2022/08/23 04:35:58;;;;;;;7.20;3.63;;;;;;;19.46;51.37;97394.84;5046289;28;20725;-71
2022/08/23 04:38:24;;;;;;;4.80;3.60;;;;;;;19.43;51.52;97403.22;5041505;28;20435;-71
2022/08/23 04:43:33;;;;;;;5.97;3.63;;;;;;;19.44;51.54;97404.84;5052184;28;20425;-71
2022/08/23 04:45:59;;;;;;;4.33;3.67;;;;;;;19.45;51.61;97405.69;5051263;28;20439;-70
2022/08/23 04:48:25;;;;;;;4.23;3.53;;;;;;;19.41;51.50;97413.22;5037004;28;20183;-71
2022/08/23 04:50:50;;;;;;;6.07;3.97;;;;;;;19.40;51.52;97410.78;5046740;28;20664;-71
2022/08/23 04:53:16;;;;;;;4.93;3.87;;;;;;;19.33;51.79;97424.06;5041344;28;20526;-70
2022/08/23 04:55:42;;;;;;;7.00;4.03;;;;;;;19.33;52.02;97426.72;5044749;28;20214;-71
2022/08/23 04:58:08;;;;;;;4.73;3.83;;;;;;;19.38;51.99;97423.44;5045155;28;20795;-71
2022/08/23 05:00:34;;;;;;;6.23;3.70;;;;;;;19.41;51.83;97425.72;5052004;28;20183;-71
2022/08/23 05:02:59;;;;;;;3.53;3.23;;;;;;;19.47;51.82;97425.72;5044120;28;20416;-71
2022/08/23 05:05:26;;;;;;;5.83;3.77;;;;;;;19.53;51.76;97423.28;5033153;28;20952;-71
2022/08/23 05:07:52;;;;;;;4.27;3.80;;;;;;;19.57;51.51;97429.81;5050745;28;20229;-72
2022/08/23 05:10:18;;;;;;;6.27;3.57;;;;;;;19.58;51.66;97428.78;5050143;28;20433;-70
2022/08/23 05:12:44;;;;;;;5.13;3.70;;;;;;;19.63;51.67;97429.00;5038321;28;20189;-70
2022/08/23 05:15:10;;;;;;;6.50;4.20;;;;;;;19.68;51.57;97431.03;5043929;28;20961;-71
2022/08/23 05:17:36;;;;;;;9.63;3.70;;;;;;;19.72;51.63;97432.28;5009597;28;20948;-71
2022/08/23 05:20:03;;;;;;;6.67;3.70;;;;;;;19.74;51.79;97431.03;5042735;28;20435;-71
2022/08/23 05:22:32;;;;;;;4.93;3.70;;;;;;;19.77;51.78;97433.28;5051323;28;20199;-71
2022/08/23 05:24:58;;;;;;;5.63;3.97;;;;;;;19.84;51.78;97432.44;5044270;28;20446;-69
2022/08/23 05:27:24;;;;;;;4.33;3.43;;;;;;;19.88;51.62;97431.06;5049939;28;20824;-71
2022/08/23 05:29:53;;;;;;;5.20;3.63;;;;;;;19.90;51.65;97429.00;5044253;28;20445;-70
2022/08/23 05:32:19;;;;;;;5.00;3.40;;;;;;;19.99;51.57;97432.25;5049336;28;20769;-69
2022/08/23 05:34:45;;;;;;;7.00;4.10;;;;;;;20.04;51.41;97435.91;5051517;28;20449;-70
2022/08/23 05:37:11;;;;;;;13.50;3.53;;;;;;;20.12;51.52;97439.41;5050052;28;20445;-71
2022/08/23 05:39:36;;;;;;;16.83;4.00;;;;;;;20.16;51.46;97443.28;5046416;28;20190;-69
2022/08/23 05:42:03;;;;;;;8.17;4.07;;;;;;;20.23;51.52;97438.75;5045768;28;20215;-69
2022/08/23 05:44:28;;;;;;;7.37;4.00;;;;;;;20.29;51.49;97435.25;5049200;28;20203;-70
2022/08/23 05:46:54;;;;;;;6.20;4.20;;;;;;;20.35;51.46;97442.41;5045583;28;20941;-70
2022/08/23 05:49:19;;;;;;;7.37;3.97;;;;;;;20.39;51.18;97438.31;5051080;28;20209;-69
2022/08/23 05:51:44;;;;;;;4.30;3.80;;;;;;;20.47;50.28;97441.75;5045590;28;20713;-68
2022/08/23 05:54:10;;;;;;;5.83;3.90;;;;;;;20.53;50.62;97444.41;5039974;28;20283;-69
2022/08/23 05:56:41;;;;;;;5.00;3.57;;;;;;;20.65;50.38;97455.22;5050247;28;20195;-69
2022/08/23 05:59:08;;;;;;;8.60;4.43;;;;;;;20.76;50.75;97450.28;5049739;28;20198;-70
2022/08/23 06:01:35;;;;;;;5.13;3.70;;;;;;;20.86;50.68;97450.63;5051088;28;20472;-69
2022/08/23 06:04:08;;;;;;;5.03;4.07;;;;;;;20.97;50.37;97454.50;5050850;28;20445;-71
2022/08/23 06:06:34;;;;;;;8.63;4.10;;;;;;;21.11;50.25;97458.69;5042966;28;20433;-70
2022/08/23 06:09:01;;;;;;;10.70;3.70;;;;;;;21.30;49.84;97454.25;5050879;28;20437;-69
2022/08/23 06:11:28;;;;;;;6.43;3.63;;;;;;;21.49;49.72;97452.50;5050807;28;20206;-69
2022/08/23 06:13:59;;;;;;;7.97;4.27;;;;;;;21.68;48.61;97459.78;5045080;28;20492;-70
2022/08/23 06:16:39;;;;;;;5.47;3.60;;;;;;;21.86;48.23;97456.38;5049939;28;20528;-69
2022/08/23 06:19:06;;;;;;;5.40;3.93;;;;;;;22.06;47.79;97462.31;5037629;28;20532;-68
2022/08/23 06:21:32;;;;;;;8.10;3.77;;;;;;;22.27;47.54;97459.47;5041393;28;20461;-69
2022/08/23 06:23:58;;;;;;;6.90;3.60;;;;;;;22.44;46.99;97455.19;5050560;28;21009;-70
2022/08/23 06:26:33;;;;;;;10.70;3.90;;;;;;;22.65;46.68;97458.44;5049884;28;20437;-68
2022/08/23 06:29:01;;;;;;;3.90;3.07;;;;;;;22.83;46.22;97461.09;5050702;28;20182;-69
2022/08/23 06:34:20;;;;;;;6.70;3.23;;;;;;;23.27;45.83;97465.47;5041207;28;20458;-69
2022/08/23 06:36:55;;;;;;;6.67;3.63;;;;;;;23.45;44.95;97460.03;5049804;28;20954;-68
2022/08/23 06:39:22;;;;;;;7.67;3.47;;;;;;;23.64;44.55;97457.31;5045451;28;20490;-69
2022/08/23 06:41:48;;;;;;;6.70;3.53;;;;;;;23.83;44.27;97460.69;5047133;28;20457;-69
2022/08/23 06:44:15;;;;;;;9.23;3.30;;;;;;;23.98;43.32;97460.25;5046268;28;20948;-70
2022/08/23 06:46:41;;;;;;;4.37;3.33;;;;;;;24.13;43.00;97467.81;5043381;28;21217;-69
2022/08/23 06:49:07;;;;;;;8.13;3.60;;;;;;;24.32;43.09;97467.69;5050456;28;20457;-69
2022/08/23 06:51:36;;;;;;;13.27;3.53;;;;;;;24.48;41.89;97464.31;5043743;28;20647;-70
2022/08/23 06:54:05;;;;;;;7.30;3.30;;;;;;;24.63;41.77;97477.19;5049223;28;20457;-70
2022/08/23 06:56:30;;;;;;;8.63;3.53;;;;;;;24.80;41.83;97471.94;5053936;28;20444;-70
2022/08/23 06:58:56;;;;;;;4.40;3.37;;;;;;;24.99;41.36;97474.44;5054421;28;20433;-70
2022/08/23 07:01:33;;;;;;;5.00;3.33;;;;;;;25.18;41.08;97466.19;5052846;28;20207;-71
2022/08/23 07:04:03;;;;;;;5.73;3.23;;;;;;;25.40;41.17;97464.44;5054168;28;20445;-69
2022/08/23 07:06:29;;;;;;;5.20;3.53;;;;;;;25.57;40.50;97469.03;5044976;28;20820;-70
2022/08/23 07:08:55;;;;;;;9.57;3.70;;;;;;;25.71;39.46;97474.88;5044460;28;20428;-70
2022/08/23 07:11:21;;;;;;;8.10;3.60;;;;;;;25.85;39.61;97467.34;5054245;28;20848;-69
2022/08/23 07:13:47;;;;;;;4.63;3.20;;;;;;;26.02;39.60;97472.69;5040532;28;20179;-69
2022/08/23 07:16:16;;;;;;;4.70;3.20;;;;;;;26.17;39.12;97472.94;5054111;28;20432;-69
2022/08/23 07:18:44;;;;;;;5.83;3.27;;;;;;;26.34;38.88;97480.13;5052615;28;20179;-69
2022/08/23 07:21:11;;;;;;;7.33;3.03;;;;;;;26.48;38.74;97478.72;5044270;28;20469;-70
2022/08/23 07:23:36;;;;;;;6.33;3.10;;;;;;;26.64;38.06;97479.75;5052944;28;20430;-69
2022/08/23 07:26:06;;;;;;;9.73;3.57;;;;;;;26.78;37.99;97479.34;5053863;28;20947;-71
2022/08/23 07:28:31;;;;;;;6.13;3.10;;;;;;;26.93;38.00;97478.75;5052736;28;20806;-69
2022/08/23 07:31:26;;;;;;;13.00;3.40;;;;;;;27.07;37.51;97482.69;5053833;28;20433;-69
2022/08/23 07:33:53;;;;;;;10.00;3.70;;;;;;;27.24;37.44;97490.66;5053431;28;20209;-69
2022/08/23 07:36:21;;;;;;;6.50;2.93;;;;;;;27.33;36.64;97491.03;5053306;28;20438;-69
2022/08/23 07:38:46;;;;;;;18.77;3.17;;;;;;;27.50;36.64;97487.41;5048561;28;20432;-71
2022/08/23 07:41:13;;;;;;;6.40;2.80;;;;;;;27.63;36.07;97487.00;5053231;28;20984;-69
2022/08/23 07:43:40;;;;;;;9.33;2.90;;;;;;;27.68;35.23;97484.34;5046512;28;20321;-69
2022/08/23 07:46:06;;;;;;;3.30;2.70;;;;;;;27.85;35.04;97488.81;5045376;28;20913;-70
2022/08/23 07:48:32;;;;;;;4.80;2.83;;;;;;;28.00;34.12;97491.59;5043551;28;20440;-70
2022/08/23 07:51:00;;;;;;;4.50;2.70;;;;;;;28.15;34.16;97500.88;5053544;28;20425;-69
2022/08/23 07:53:26;;;;;;;4.70;2.73;;;;;;;28.33;34.19;97481.59;5051832;28;20336;-68
2022/08/23 07:55:52;;;;;;;6.90;2.43;;;;;;;28.52;34.22;97483.84;5051962;28;20540;-70
2022/08/23 07:58:18;;;;;;;5.33;2.53;;;;;;;28.67;33.28;97492.00;5052315;28;20195;-69
2022/08/23 08:00:43;;;;;;;6.13;2.60;;;;;;;28.64;29.91;97492.53;5051604;28;20190;-69
2022/08/23 08:03:11;;;;;;;4.80;2.37;;;;;;;28.86;30.07;97494.25;5050213;28;20461;-70
2022/08/23 08:05:36;;;;;;;4.03;2.10;;;;;;;29.11;30.16;97498.13;5045949;28;20260;-70
2022/08/23 08:08:03;;;;;;;3.83;2.10;;;;;;;29.30;30.07;97503.81;5052337;28;20800;-71
2022/08/23 08:10:29;;;;;;;4.87;2.10;;;;;;;29.51;30.66;97501.97;5052883;28;20194;-70
2022/08/23 08:12:54;;;;;;;3.63;2.27;;;;;;;29.69;30.31;97505.25;5047159;28;20425;-70
2022/08/23 08:15:21;;;;;;;4.60;2.43;;;;;;;29.81;30.14;97505.78;5051424;28;20215;-69
2022/08/23 08:17:47;;;;;;;5.43;2.30;;;;;;;29.91;29.44;97509.56;5052005;28;20183;-70
2022/08/23 08:20:14;;;;;;;2.43;2.23;;;;;;;30.07;29.36;97508.50;5042859;28;20799;-70
2022/08/23 08:22:40;;;;;;;2.20;2.00;;;;;;;30.27;28.96;97509.53;5044616;28;20473;-70
2022/08/23 08:25:07;;;;;;;5.43;2.30;;;;;;;30.45;29.29;97502.72;5051261;28;20451;-69
2022/08/23 08:27:33;;;;;;;3.23;2.53;;;;;;;30.57;28.16;97510.59;5051786;28;20920;-70
2022/08/23 08:29:58;;;;;;;7.50;2.50;;;;;;;30.70;27.76;97507.28;5034679;28;20428;-69
2022/08/23 08:32:24;;;;;;;3.63;1.93;;;;;;;30.43;27.93;97519.25;5052451;28;20634;-70
2022/08/23 08:34:49;;;;;;;3.50;2.40;;;;;;;30.70;27.71;97509.16;5052330;28;20234;-69
2022/08/23 08:37:15;;;;;;;3.87;2.10;;;;;;;30.92;26.94;97516.94;5036236;28;20231;-69
2022/08/23 08:39:44;;;;;;;3.57;2.20;;;;;;;30.89;26.98;97520.19;5047454;28;20194;-69
2022/08/23 08:42:31;;;;;;;2.13;1.90;;;;;;;31.09;26.48;97513.88;5046469;28;20214;-69
2022/08/23 08:45:04;;;;;;;6.87;2.17;;;;;;;31.29;25.50;97521.09;5043390;28;20988;-69
2022/08/23 08:47:33;;;;;;;3.47;2.00;;;;;;;31.45;25.61;97523.72;5035282;28;20787;-69
2022/08/23 08:50:10;;;;;;;6.93;1.80;;;;;;;31.71;25.08;97527.06;5052171;28;20477;-70
2022/08/23 08:52:43;;;;;;;4.77;1.97;;;;;;;31.95;25.51;97521.72;5051120;28;20417;-69
2022/08/23 08:55:32;;;;;;;3.00;1.83;;;;;;;31.74;24.59;97517.59;5042266;28;20540;-69
2022/08/23 08:57:58;;;;;;;4.00;1.70;;;;;;;31.81;24.58;97518.06;5051316;28;20475;-69
2022/08/23 09:00:27;;;;;;;1.70;1.60;;;;;;;31.80;24.56;97524.56;5051944;28;20904;-69
2022/08/23 09:02:54;;;;;;;5.37;2.23;;;;;;;31.67;24.91;97532.22;5043330;28;20461;-69
2022/08/23 09:05:30;;;;;;;3.40;2.17;;;;;;;31.78;23.69;97529.44;5050521;28;20960;-70
2022/08/23 09:08:14;;;;;;;5.00;2.00;;;;;;;31.30;24.24;97528.13;5041863;28;20520;-69
2022/08/23 09:10:51;;;;;;;2.10;1.60;;;;;;;31.76;24.77;97528.94;5050696;28;20429;-69
2022/08/23 09:13:31;;;;;;;5.30;1.77;;;;;;;32.20;24.27;97521.78;5044413;28;20874;-70
2022/08/23 09:16:23;;;;;;;4.30;1.80;;;;;;;32.57;23.63;97529.28;5051673;28;20487;-69
2022/08/23 09:18:50;;;;;;;4.60;1.80;;;;;;;32.45;23.16;97526.16;5050623;28;20410;-70
2022/08/23 09:21:16;;;;;;;6.57;2.10;;;;;;;32.11;23.63;97532.44;5043074;28;20469;-70
2022/08/23 09:23:45;;;;;;;4.03;2.00;;;;;;;32.46;24.17;97520.44;5046509;28;20419;-69
2022/08/23 09:26:26;;;;;;;8.00;2.53;;;;;;;32.86;24.17;97523.00;5047858;28;20430;-69
2022/08/23 09:28:55;;;;;;;2.70;1.80;;;;;;;33.04;23.26;97520.59;5028592;28;20900;-68
2022/08/23 09:31:46;;;;;;;4.40;2.27;;;;;;;33.37;23.27;97526.16;5051318;28;20417;-69
2022/08/23 09:34:18;;;;;;;3.63;1.80;;;;;;;33.45;23.07;97522.78;5051103;28;20474;-70
2022/08/23 09:36:44;;;;;;;5.30;2.10;;;;;;;33.50;22.79;97519.19;5049289;28;20446;-69
2022/08/23 09:39:23;;;;;;;3.00;2.20;;;;;;;33.77;23.01;97526.66;5044252;28;20430;-70
2022/08/23 09:41:49;;;;;;;8.03;2.30;;;;;;;33.91;22.70;97517.72;5042278;28;20256;-70
2022/08/23 09:44:31;;;;;;;8.13;1.80;;;;;;;34.03;21.78;97528.16;5047635;28;20540;-69
2022/08/23 09:47:12;;;;;;;11.23;2.50;;;;;;;34.16;21.79;97524.66;5040612;28;20221;-70
2022/08/23 09:49:39;;;;;;;2.40;1.60;;;;;;;34.33;21.89;97517.84;5051316;28;20485;-69
2022/08/23 09:52:20;;;;;;;3.07;1.70;;;;;;;34.38;21.51;97525.88;5051059;28;20495;-70
2022/08/23 09:54:54;;;;;;;4.90;1.83;;;;;;;34.56;21.53;97530.47;5049730;28;20450;-70
2022/08/23 09:57:24;;;;;;;4.20;1.60;;;;;;;34.69;21.48;97523.41;5050289;28;20532;-70
2022/08/23 09:59:54;;;;;;;3.57;1.90;;;;;;;34.80;21.23;97525.91;5050869;28;20460;-70
2022/08/23 10:02:20;;;;;;;2.97;1.70;;;;;;;34.88;20.76;97517.84;5050906;28;20469;-70
2022/08/23 10:05:04;;;;;;;3.50;1.60;;;;;;;34.87;20.33;97527.13;5050926;28;20446;-70
2022/08/23 10:07:37;;;;;;;2.70;1.70;;;;;;;34.83;20.42;97526.13;5049751;28;20183;-69
2022/08/23 10:10:45;;;;;;;2.20;1.70;;;;;;;34.95;20.44;97522.13;5050851;28;20421;-69
2022/08/23 10:13:11;;;;;;;6.00;2.67;;;;;;;35.23;19.98;97509.25;5036957;28;20480;-69
2022/08/23 10:15:59;;;;;;;5.27;2.30;;;;;;;35.27;20.41;97518.41;5051063;28;20453;-70
2022/08/23 10:18:40;;;;;;;2.30;1.70;;;;;;;35.23;19.67;97517.41;5049931;28;20913;-70
2022/08/23 10:21:16;;;;;;;5.43;2.03;;;;;;;35.06;19.30;97510.69;5041127;28;20462;-69
2022/08/23 10:23:56;;;;;;;3.60;1.70;;;;;;;35.10;19.83;97516.31;5049694;28;20798;-70
2022/08/23 10:26:32;;;;;;;8.27;2.20;;;;;;;35.20;19.62;97509.84;5050587;28;20439;-69
2022/08/23 10:32:10;;;;;;;5.13;2.60;;;;;;;35.44;19.45;97508.78;5053767;28;20421;-70
2022/08/23 10:34:53;;;;;;;6.43;2.17;;;;;;;35.79;19.68;97506.34;5053598;28;20986;-69
2022/08/23 10:37:42;;;;;;;4.03;1.70;;;;;;;35.87;18.86;97507.47;5053824;28;20475;-69
2022/08/23 10:40:16;;;;;;;3.00;1.50;;;;;;;35.76;19.20;97502.28;5047382;28;20455;-71
2022/08/23 10:42:57;;;;;;;2.23;1.77;;;;;;;35.95;18.67;97507.56;5048953;28;20495;-69
2022/08/23 10:45:25;;;;;;;4.20;1.60;;;;;;;35.93;18.47;97500.81;5043986;28;20445;-69
2022/08/23 10:47:57;;;;;;;4.73;1.90;;;;;;;35.95;18.47;97499.38;5052757;28;20423;-69
2022/08/23 10:50:25;;;;;;;3.03;1.77;;;;;;;35.91;18.15;97498.41;5054372;28;20421;-70
2022/08/23 10:52:55;;;;;;;1.80;1.50;;;;;;;36.02;18.25;97489.97;5030365;28;20420;-70
2022/08/23 10:55:42;;;;;;;3.80;1.60;;;;;;;35.64;18.37;97488.44;5052044;28;20491;-70
2022/08/23 10:58:15;;;;;;;3.63;1.70;;;;;;;35.92;18.29;97489.06;5051760;28;20562;-69
2022/08/23 11:00:41;;;;;;;3.30;1.60;;;;;;;35.97;18.29;97491.72;5038112;28;20436;-70
2022/08/23 11:03:32;;;;;;;2.30;1.70;;;;;;;36.06;17.61;97486.31;5045806;28;20453;-70
2022/08/23 11:06:28;;;;;;;3.03;1.43;;;;;;;36.10;18.09;97484.56;5053023;28;20199;-69
2022/08/23 11:09:05;;;;;;;2.60;1.50;;;;;;;36.39;17.74;97477.78;5054262;28;20417;-69
2022/08/23 11:11:38;;;;;;;2.40;1.53;;;;;;;36.38;17.75;97481.63;5037222;28;20424;-67
2022/08/23 11:14:06;;;;;;;2.30;1.57;;;;;;;36.48;18.07;97480.56;5049270;28;20467;-70
2022/08/23 11:16:33;;;;;;;2.40;1.50;;;;;;;36.69;17.64;97482.69;5051876;28;20421;-70
2022/08/23 11:18:59;;;;;;;3.70;1.57;;;;;;;36.88;17.13;97461.41;5052906;28;20432;-69
2022/08/23 11:21:24;;;;;;;2.90;1.47;;;;;;;36.59;17.28;97476.44;5044420;28;20514;-70
2022/08/23 11:23:54;;;;;;;3.67;1.80;;;;;;;36.11;17.49;97479.91;5038730;28;20182;-68
2022/08/23 11:26:22;;;;;;;10.77;1.73;;;;;;;34.91;18.76;97475.59;5053349;28;20212;-70
2022/08/23 11:29:03;;;;;;;3.10;1.47;;;;;;;35.08;18.50;97469.56;5052629;28;20421;-70
2022/08/23 11:31:46;;;;;;;2.17;1.70;;;;;;;35.73;18.63;97470.19;5053381;28;20413;-71
2022/08/23 11:34:21;;;;;;;1.73;1.40;;;;;;;35.70;18.27;97473.56;5053282;28;20479;-69
2022/08/23 11:37:20;;;;;;;4.97;1.40;;;;;;;35.95;18.30;97472.13;5051398;28;20432;-69
2022/08/23 11:39:57;;;;;;;2.90;1.70;;;;;;;36.29;18.32;97465.22;5028535;28;20833;-69
2022/08/23 11:42:38;;;;;;;2.23;1.67;;;;;;;36.47;18.06;97470.78;5047737;28;20531;-71
2022/08/23 11:45:25;;;;;;;3.40;1.70;;;;;;;36.66;17.82;97466.97;5046931;28;20442;-70
2022/08/23 11:48:11;;;;;;;7.93;1.70;;;;;;;36.56;17.13;97468.88;5047460;28;20420;-69
2022/08/23 11:50:49;;;;;;;2.07;1.53;;;;;;;36.54;17.48;97465.66;5052386;28;20455;-70
2022/08/23 11:53:36;;;;;;;2.67;1.50;;;;;;;36.61;17.89;97464.38;5053422;28;20977;-69
2022/08/23 11:56:23;;;;;;;1.70;1.50;;;;;;;36.76;17.74;97466.69;5053388;28;20512;-70
2022/08/23 11:59:50;;;;;;;5.10;1.67;;;;;;;36.85;17.38;97459.28;5053505;28;20431;-69
2022/08/23 12:02:37;;;;;;;4.10;1.60;;;;;;;36.88;16.94;97453.22;5030538;28;20497;-68